createdAt,value
2018-07-05T00:02:19.206Z,9.73
2018-07-05T00:04:58.796Z,4.80
2018-07-05T00:07:38.368Z,4.03
2018-07-05T00:10:17.816Z,6.50
2018-07-05T00:12:57.527Z,4.50
2018-07-05T00:15:36.999Z,5.70
2018-07-05T00:18:16.660Z,3.37
2018-07-05T00:20:56.221Z,3.53
2018-07-05T00:23:35.863Z,5.63
2018-07-05T00:26:15.321Z,4.40
2018-07-05T00:28:54.891Z,5.23
2018-07-05T00:31:34.468Z,3.80
2018-07-05T00:34:14.046Z,4.43
2018-07-05T00:36:53.497Z,3.67
2018-07-05T00:39:33.031Z,5.40
2018-07-05T00:42:12.676Z,5.10
2018-07-05T00:44:52.506Z,3.83
2018-07-05T00:47:32.286Z,3.97
2018-07-05T00:50:11.914Z,4.93
2018-07-05T00:52:51.688Z,4.47
2018-07-05T00:55:31.446Z,4.50
2018-07-05T00:58:10.992Z,6.57
2018-07-05T01:00:50.657Z,4.57
2018-07-05T01:03:30.264Z,4.70
2018-07-05T01:06:10.071Z,4.27
2018-07-05T01:08:49.617Z,4.90
2018-07-05T01:11:29.126Z,6.50
2018-07-05T01:14:08.616Z,5.00
2018-07-05T01:16:48.243Z,4.40
2018-07-05T01:19:27.942Z,4.93
2018-07-05T01:22:07.472Z,4.33
2018-07-05T01:24:42.147Z,5.87
2018-07-05T01:27:21.708Z,5.53
2018-07-05T01:30:01.395Z,4.10
2018-07-05T01:32:41.021Z,4.75
2018-07-05T01:35:21.586Z,5.00
2018-07-05T01:38:01.144Z,5.00
2018-07-05T01:40:40.703Z,5.07
2018-07-05T01:43:20.232Z,4.80
2018-07-05T01:45:59.730Z,4.27
2018-07-05T01:48:39.306Z,4.90
2018-07-05T01:51:18.902Z,4.67
2018-07-05T01:53:58.613Z,4.50
2018-07-05T01:56:38.247Z,7.83
2018-07-05T01:59:17.805Z,6.67
2018-07-05T02:01:57.253Z,6.97
2018-07-05T02:04:36.921Z,5.93
2018-07-05T02:07:16.505Z,8.20
2018-07-05T02:09:56.037Z,7.17
2018-07-05T02:12:35.663Z,6.67
2018-07-05T02:15:09.294Z,5.70
2018-07-05T02:17:48.988Z,6.97
2018-07-05T02:20:28.517Z,6.60
2018-07-05T02:23:08.125Z,4.97
2018-07-05T02:25:47.705Z,5.17
2018-07-05T02:28:27.341Z,5.50
2018-07-05T02:31:06.861Z,7.43
2018-07-05T02:33:46.970Z,6.40
2018-07-05T02:36:26.933Z,5.07
2018-07-05T02:39:12.041Z,5.47
2018-07-05T02:41:51.803Z,6.87
2018-07-05T02:44:31.521Z,4.83
2018-07-05T02:47:10.949Z,4.43
2018-07-05T02:49:50.592Z,5.93
2018-07-05T02:52:30.282Z,4.67
2018-07-05T02:55:09.906Z,5.60
2018-07-05T02:57:49.588Z,6.23
2018-07-05T03:00:29.341Z,4.00
2018-07-05T03:03:09.011Z,5.80
2018-07-05T03:05:50.675Z,6.13
2018-07-05T03:08:30.323Z,4.13
2018-07-05T03:11:10.080Z,4.53
2018-07-05T03:13:49.721Z,6.77
2018-07-05T03:16:29.372Z,4.70
2018-07-05T03:19:09.007Z,4.97
2018-07-05T03:21:48.657Z,3.63
2018-07-05T03:24:28.191Z,5.20
2018-07-05T03:27:08.957Z,4.10
2018-07-05T03:29:48.562Z,5.80
2018-07-05T03:32:28.158Z,4.67
2018-07-05T03:35:07.929Z,5.00
2018-07-05T03:37:47.539Z,4.10
2018-07-05T03:40:27.096Z,4.87
2018-07-05T03:43:06.608Z,5.53
2018-07-05T03:45:46.100Z,5.33
2018-07-05T03:48:25.846Z,5.40
2018-07-05T03:51:05.459Z,5.50
2018-07-05T03:53:44.999Z,5.33
2018-07-05T03:56:24.991Z,7.30
2018-07-05T03:59:04.855Z,6.30
2018-07-05T04:01:44.679Z,6.77
2018-07-05T04:04:24.302Z,6.13
2018-07-05T04:07:05.266Z,6.30
2018-07-05T04:09:45.013Z,6.00
2018-07-05T04:12:18.395Z,6.57
2018-07-05T04:14:58.114Z,7.47
2018-07-05T04:17:37.687Z,6.00
2018-07-05T04:20:11.195Z,6.07
2018-07-05T04:22:50.831Z,5.20
2018-07-05T04:25:24.514Z,5.33
2018-07-05T04:28:04.208Z,5.17
2018-07-05T04:30:43.892Z,5.83
2018-07-05T04:33:23.490Z,6.13
2018-07-05T04:36:03.075Z,5.90
2018-07-05T04:38:42.780Z,6.40
2018-07-05T04:41:22.414Z,6.33
2018-07-05T04:44:02.153Z,6.97
2018-07-05T04:46:42.776Z,7.20
2018-07-05T04:49:22.303Z,6.07
2018-07-05T04:52:01.981Z,8.93
2018-07-05T04:54:41.599Z,10.30
2018-07-05T04:57:21.036Z,18.80
2018-07-05T05:00:00.473Z,12.27
2018-07-05T05:02:40.170Z,11.67
2018-07-05T05:05:20.439Z,14.00
2018-07-05T05:07:59.944Z,6.03
2018-07-05T05:10:39.612Z,7.87
2018-07-05T05:13:19.318Z,6.37
2018-07-05T05:15:58.855Z,11.53
2018-07-05T05:18:38.352Z,9.70
2018-07-05T05:21:17.865Z,6.47
2018-07-05T05:23:57.608Z,8.63
2018-07-05T05:26:37.119Z,10.43
2018-07-05T05:29:16.677Z,7.30
2018-07-05T05:31:56.238Z,7.23
2018-07-05T05:34:35.769Z,6.00
2018-07-05T05:37:15.473Z,5.90
2018-07-05T05:39:55.142Z,6.03
2018-07-05T05:42:34.711Z,7.17
2018-07-05T05:45:14.436Z,5.90
2018-07-05T05:47:54.119Z,5.57
2018-07-05T05:50:33.603Z,5.30
2018-07-05T05:53:13.256Z,5.23
2018-07-05T05:55:52.585Z,4.67
2018-07-05T05:58:32.225Z,4.73
2018-07-05T06:01:11.968Z,4.57
2018-07-05T06:03:51.573Z,5.53
2018-07-05T06:06:30.921Z,5.37
2018-07-05T06:09:10.510Z,6.10
2018-07-05T06:11:50.063Z,7.33
2018-07-05T06:14:29.768Z,13.23
2018-07-05T06:17:09.244Z,8.80
2018-07-05T06:19:48.893Z,7.80
2018-07-05T06:22:28.440Z,8.93
2018-07-05T06:25:08.115Z,6.53
2018-07-05T06:27:47.796Z,8.90
2018-07-05T06:30:27.449Z,11.03
2018-07-05T06:33:07.049Z,6.63
2018-07-05T06:35:46.692Z,5.93
2018-07-05T06:38:26.389Z,5.40
2018-07-05T06:41:05.893Z,4.47
2018-07-05T06:43:45.617Z,5.03
2018-07-05T06:46:25.114Z,6.63
2018-07-05T06:49:04.815Z,4.77
2018-07-05T06:51:44.244Z,7.30
2018-07-05T06:54:23.845Z,5.43
2018-07-05T06:57:03.307Z,5.17
2018-07-05T06:59:42.934Z,4.83
2018-07-05T07:02:22.648Z,4.57
2018-07-05T07:05:02.306Z,5.53
2018-07-05T07:07:41.961Z,5.00
2018-07-05T07:10:21.501Z,4.00
2018-07-05T07:13:01.031Z,10.60
2018-07-05T07:15:40.578Z,5.17
2018-07-05T07:18:20.225Z,4.47
2018-07-05T07:20:59.798Z,5.10
2018-07-05T07:23:39.394Z,3.97
2018-07-05T07:26:18.850Z,3.13
2018-07-05T07:28:58.508Z,3.77
2018-07-05T07:31:38.217Z,3.27
2018-07-05T07:34:17.781Z,3.30
2018-07-05T07:36:57.508Z,2.80
2018-07-05T07:39:37.249Z,2.57
2018-07-05T07:42:04.494Z,3.33
2018-07-05T07:44:31.757Z,2.80
2018-07-05T07:46:58.951Z,3.47
2018-07-05T07:49:26.183Z,2.30
2018-07-05T07:51:53.422Z,2.20
2018-07-05T07:54:20.705Z,5.07
2018-07-05T07:56:47.957Z,2.73
2018-07-05T07:59:15.134Z,2.70
2018-07-05T08:01:42.372Z,2.87
2018-07-05T08:04:09.583Z,2.87
2018-07-05T08:06:36.807Z,3.00
2018-07-05T08:09:05.495Z,2.10
2018-07-05T08:11:32.724Z,2.03
2018-07-05T08:13:59.903Z,5.13
2018-07-05T08:16:27.148Z,3.43
2018-07-05T08:18:54.370Z,2.43
2018-07-05T08:21:21.605Z,2.57
2018-07-05T08:23:48.821Z,2.53
2018-07-05T08:26:16.993Z,2.23
2018-07-05T08:28:44.216Z,3.03
2018-07-05T08:31:11.734Z,2.70
2018-07-05T08:33:38.974Z,4.20
2018-07-05T08:36:06.178Z,3.97
2018-07-05T08:38:33.416Z,3.87
2018-07-05T08:41:00.668Z,5.50
2018-07-05T08:43:27.897Z,3.87
2018-07-05T08:45:55.053Z,4.50
2018-07-05T08:48:22.279Z,4.23
2018-07-05T08:50:49.516Z,6.80
2018-07-05T08:53:16.707Z,5.87
2018-07-05T08:55:44.037Z,7.07
2018-07-05T08:58:11.279Z,6.93
2018-07-05T09:00:38.477Z,6.00
2018-07-05T09:03:05.693Z,6.27
2018-07-05T09:05:33.131Z,9.03
2018-07-05T09:08:00.289Z,6.23
2018-07-05T09:10:27.516Z,5.47
2018-07-05T09:12:54.708Z,6.60
2018-07-05T09:15:21.938Z,5.73
2018-07-05T09:17:49.262Z,6.07
2018-07-05T09:20:16.339Z,5.63
2018-07-05T09:22:43.585Z,4.97
2018-07-05T09:25:10.821Z,5.33
2018-07-05T09:27:38.033Z,5.50
2018-07-05T09:30:05.265Z,3.63
2018-07-05T09:32:32.481Z,3.83
2018-07-05T09:35:00.619Z,3.63
2018-07-05T09:37:28.748Z,4.00
2018-07-05T09:39:55.939Z,4.90
2018-07-05T09:42:23.137Z,3.60
2018-07-05T09:44:50.407Z,4.13
2018-07-05T09:47:17.629Z,4.70
2018-07-05T09:49:44.829Z,4.90
2018-07-05T09:52:12.020Z,4.73
2018-07-05T09:54:40.255Z,4.63
2018-07-05T09:57:07.490Z,4.37
2018-07-05T09:59:34.710Z,4.17
2018-07-05T10:02:01.978Z,4.83
2018-07-05T10:04:29.247Z,5.00
2018-07-05T10:06:56.458Z,4.87
2018-07-05T10:09:23.661Z,3.70
2018-07-05T10:11:50.974Z,7.07
2018-07-05T10:14:18.266Z,6.33
2018-07-05T10:16:45.463Z,4.20
2018-07-05T10:19:12.653Z,5.03
2018-07-05T10:21:39.916Z,3.70
2018-07-05T10:24:07.142Z,2.80
2018-07-05T10:26:34.421Z,3.90
2018-07-05T10:29:14.106Z,3.57
2018-07-05T10:31:53.744Z,4.30
2018-07-05T10:34:21.067Z,3.63
2018-07-05T10:36:48.499Z,4.43
2018-07-05T10:39:15.698Z,3.90
2018-07-05T10:41:55.373Z,4.43
2018-07-05T10:44:35.120Z,4.33
2018-07-05T10:47:14.661Z,3.90
2018-07-05T10:49:54.236Z,4.23
2018-07-05T10:52:33.874Z,4.07
2018-07-05T10:55:07.546Z,4.30
2018-07-05T10:57:47.082Z,4.10
2018-07-05T11:00:26.745Z,5.50
2018-07-05T11:03:00.399Z,3.53
2018-07-05T11:05:40.142Z,6.33
2018-07-05T11:08:19.781Z,4.00
2018-07-05T11:10:59.242Z,4.00
2018-07-05T11:13:38.919Z,4.30
2018-07-05T11:16:18.416Z,3.90
2018-07-05T11:18:57.977Z,5.43
2018-07-05T11:21:37.577Z,4.40
2018-07-05T11:24:17.169Z,4.40
2018-07-05T11:26:56.702Z,3.70
2018-07-05T11:29:36.305Z,3.90
2018-07-05T11:32:15.892Z,4.80
2018-07-05T11:34:55.660Z,3.73
2018-07-05T11:37:35.235Z,4.10
2018-07-05T11:40:14.819Z,3.93
2018-07-05T11:42:54.546Z,4.40
2018-07-05T11:45:34.004Z,4.53
2018-07-05T11:48:13.482Z,4.83
2018-07-05T11:50:53.067Z,5.23
2018-07-05T11:53:32.724Z,4.30
2018-07-05T11:56:12.295Z,4.03
2018-07-05T11:58:51.907Z,3.93
2018-07-05T12:01:31.618Z,5.23
2018-07-05T12:04:11.242Z,3.90
2018-07-05T12:06:51.032Z,4.67
2018-07-05T12:09:30.660Z,4.10
2018-07-05T12:12:10.215Z,4.67
2018-07-05T12:14:49.831Z,3.97
2018-07-05T12:17:29.448Z,4.40
2018-07-05T12:20:09.096Z,4.73
2018-07-05T12:22:48.666Z,4.33
2018-07-05T12:25:28.330Z,3.83
2018-07-05T12:28:08.289Z,2.67
2018-07-05T12:30:48.003Z,3.80
2018-07-05T12:33:27.705Z,4.10
2018-07-05T12:36:07.450Z,3.13
2018-07-05T12:38:47.266Z,4.47
2018-07-05T12:41:26.805Z,4.17
2018-07-05T12:44:06.486Z,4.73
2018-07-05T12:46:45.909Z,3.77
2018-07-05T12:49:25.763Z,3.70
2018-07-05T12:56:20.451Z,5.80
2018-07-05T12:59:00.038Z,4.57
2018-07-05T13:01:39.665Z,5.13
2018-07-05T13:04:19.526Z,4.60
2018-07-05T13:06:58.884Z,5.03
2018-07-05T13:09:38.423Z,5.57
2018-07-05T13:12:18.165Z,4.40
2018-07-05T13:14:57.726Z,4.10
2018-07-05T13:17:37.258Z,3.90
2018-07-05T13:20:16.890Z,4.47
2018-07-05T13:22:56.469Z,4.27
2018-07-05T13:25:36.277Z,4.13
2018-07-05T13:28:15.925Z,4.67
2018-07-05T13:30:55.556Z,4.33
2018-07-05T13:33:35.445Z,3.43
2018-07-05T13:36:15.041Z,3.30
2018-07-05T13:38:54.657Z,3.97
2018-07-05T13:41:34.192Z,3.63
2018-07-05T13:44:13.772Z,3.40
2018-07-05T13:46:53.416Z,3.73
2018-07-05T13:49:33.160Z,3.60
2018-07-05T13:52:12.864Z,3.20
2018-07-05T13:54:52.638Z,3.47
2018-07-05T13:57:32.312Z,3.70
2018-07-05T14:00:11.815Z,4.70
2018-07-05T14:02:51.368Z,3.63
2018-07-05T14:05:30.937Z,4.20
2018-07-05T14:08:10.534Z,5.00
2018-07-05T14:10:50.079Z,3.23
2018-07-05T14:13:29.719Z,4.63
2018-07-05T14:16:09.174Z,3.80
2018-07-05T14:18:48.804Z,5.20
2018-07-05T14:21:28.428Z,4.67
2018-07-05T14:24:08.203Z,4.33
2018-07-05T14:26:47.934Z,4.73
2018-07-05T14:29:27.646Z,4.27
2018-07-05T14:32:07.066Z,5.10
2018-07-05T14:34:46.644Z,3.90
2018-07-05T14:37:26.362Z,3.57
2018-07-05T14:40:06.990Z,3.60
2018-07-05T14:42:46.616Z,4.07
2018-07-05T14:45:20.173Z,3.13
2018-07-05T14:47:59.981Z,2.73
2018-07-05T14:50:39.512Z,2.93
2018-07-05T14:53:19.169Z,3.80
2018-07-05T14:55:58.842Z,3.10
2018-07-05T14:58:38.607Z,4.13
2018-07-05T15:01:18.147Z,2.37
2018-07-05T15:03:57.692Z,2.73
2018-07-05T15:06:37.471Z,3.40
2018-07-05T15:09:17.204Z,2.33
2018-07-05T15:11:56.660Z,4.75
2018-07-05T15:14:36.404Z,3.40
2018-07-05T15:17:15.966Z,4.85
2018-07-05T15:19:55.613Z,3.03
2018-07-05T15:22:35.798Z,3.00
2018-07-05T15:25:15.440Z,2.80
2018-07-05T15:27:54.930Z,4.00
2018-07-05T15:30:34.485Z,3.10
2018-07-05T15:33:14.142Z,4.03
2018-07-05T15:35:53.790Z,2.43
2018-07-05T15:38:33.405Z,3.03
2018-07-05T15:41:13.221Z,4.07
2018-07-05T15:43:52.868Z,2.40
2018-07-05T15:46:32.651Z,2.30
2018-07-05T15:49:12.291Z,1.87
2018-07-05T15:51:51.974Z,2.80
2018-07-05T15:54:31.586Z,2.53
2018-07-05T15:57:11.162Z,2.10
2018-07-05T15:59:50.797Z,1.60
2018-07-05T16:02:24.529Z,1.60
2018-07-05T16:05:04.209Z,3.40
2018-07-05T16:07:43.930Z,2.00
2018-07-05T16:10:23.548Z,1.70
2018-07-05T16:13:03.112Z,2.57
2018-07-05T16:15:42.743Z,2.67
2018-07-05T16:18:22.319Z,3.03
2018-07-05T16:21:01.858Z,2.40
2018-07-05T16:23:41.469Z,3.13
2018-07-05T16:26:21.244Z,2.30
2018-07-05T16:29:01.092Z,2.10
2018-07-05T16:31:40.520Z,1.90
2018-07-05T16:34:20.252Z,3.23
2018-07-05T16:36:59.802Z,2.20
2018-07-05T16:39:39.434Z,2.30
2018-07-05T16:42:19.093Z,2.60
2018-07-05T16:44:59.102Z,1.50
2018-07-05T16:47:38.835Z,1.90
2018-07-05T16:50:18.489Z,2.40
2018-07-05T16:52:58.155Z,1.93
2018-07-05T16:55:37.888Z,2.53
2018-07-05T16:58:17.713Z,1.80
2018-07-05T17:00:57.303Z,2.93
2018-07-05T17:03:37.007Z,2.10
2018-07-05T17:06:16.623Z,1.77
2018-07-05T17:08:56.186Z,1.60
2018-07-05T17:11:35.905Z,1.53
2018-07-05T17:14:15.425Z,2.50
2018-07-05T17:16:54.994Z,2.50
2018-07-05T17:19:34.678Z,4.47
2018-07-05T17:22:14.124Z,1.60
2018-07-05T17:24:53.990Z,2.87
2018-07-05T17:27:33.973Z,2.17
2018-07-05T17:30:13.470Z,1.70
2018-07-05T17:32:53.070Z,1.83
2018-07-05T17:35:32.819Z,1.60
2018-07-05T17:38:12.423Z,1.40
2018-07-05T17:40:52.295Z,3.90
2018-07-05T17:43:31.879Z,3.27
2018-07-05T17:46:11.753Z,1.60
2018-07-05T17:48:51.640Z,1.63
2018-07-05T17:51:31.307Z,1.77
2018-07-05T17:54:10.893Z,2.00
2018-07-05T17:56:50.552Z,1.73
2018-07-05T17:59:30.226Z,1.50
2018-07-05T18:02:09.869Z,2.40
2018-07-05T18:04:49.505Z,1.97
2018-07-05T18:07:29.128Z,2.83
2018-07-05T18:10:08.783Z,2.30
2018-07-05T18:12:48.452Z,1.50
2018-07-05T18:15:28.187Z,2.30
2018-07-05T18:18:07.793Z,1.70
2018-07-05T18:20:47.384Z,2.33
2018-07-05T18:23:27.029Z,1.93
2018-07-05T18:26:06.568Z,1.97
2018-07-05T18:28:46.112Z,3.07
2018-07-05T18:31:25.504Z,2.13
2018-07-05T18:34:05.203Z,1.80
2018-07-05T18:36:44.821Z,1.60
2018-07-05T18:39:24.562Z,1.50
2018-07-05T18:42:04.209Z,1.70
2018-07-05T18:44:44.315Z,1.60
2018-07-05T18:47:23.909Z,2.07
2018-07-05T18:50:03.572Z,1.40
2018-07-05T18:52:43.190Z,2.77
2018-07-05T18:55:22.786Z,1.50
2018-07-05T18:58:02.979Z,1.80
2018-07-05T19:00:42.505Z,1.60
2018-07-05T19:03:22.161Z,2.13
2018-07-05T19:06:02.780Z,1.60
2018-07-05T19:08:42.543Z,2.93
2018-07-05T19:11:22.016Z,1.50
2018-07-05T19:14:01.710Z,2.10
2018-07-05T19:16:41.278Z,2.00
2018-07-05T19:19:20.835Z,2.50
2018-07-05T19:22:00.486Z,2.55
2018-07-05T19:24:40.246Z,2.30
2018-07-05T19:27:19.655Z,1.77
2018-07-05T19:29:59.366Z,1.80
2018-07-05T19:32:39.033Z,1.90
2018-07-05T19:35:13.627Z,1.80
2018-07-05T19:37:53.352Z,1.80
2018-07-05T19:40:32.975Z,1.77
2018-07-05T19:43:12.518Z,1.90
2018-07-05T19:45:51.987Z,2.00
2018-07-05T19:48:31.618Z,2.23
2018-07-05T19:51:11.144Z,2.90
2018-07-05T19:53:50.835Z,2.20
2018-07-05T19:56:30.718Z,2.20
2018-07-05T19:59:10.379Z,2.10
2018-07-05T20:01:49.926Z,2.27
2018-07-05T20:04:29.643Z,2.13
2018-07-05T20:07:09.441Z,2.23
2018-07-05T20:09:49.138Z,2.00
2018-07-05T20:12:28.908Z,2.63
2018-07-05T20:15:08.516Z,2.57
2018-07-05T20:17:48.061Z,2.50
2018-07-05T20:20:27.614Z,6.30
2018-07-05T20:23:07.222Z,4.83
2018-07-05T20:25:40.795Z,3.80
2018-07-05T20:28:20.436Z,3.10
2018-07-05T20:31:00.089Z,2.57
2018-07-05T20:33:39.684Z,2.03
2018-07-05T20:36:19.199Z,2.87
2018-07-05T20:38:58.849Z,4.60
2018-07-05T20:41:38.472Z,2.73
2018-07-05T20:44:18.265Z,2.93
2018-07-05T20:46:57.808Z,2.97
2018-07-05T20:49:37.411Z,3.67
2018-07-05T20:52:17.063Z,4.03
2018-07-05T20:54:56.809Z,3.30
2018-07-05T20:57:36.462Z,4.43
2018-07-05T21:00:16.038Z,2.87
2018-07-05T21:02:55.725Z,3.57
2018-07-05T21:05:35.625Z,3.20
2018-07-05T21:08:15.644Z,3.10
2018-07-05T21:10:55.284Z,2.77
2018-07-05T21:13:35.096Z,3.10
2018-07-05T21:16:14.717Z,3.13
2018-07-05T21:18:54.266Z,3.33
2018-07-05T21:21:33.851Z,4.07
2018-07-05T21:24:13.364Z,2.73
2018-07-05T21:26:52.855Z,4.47
2018-07-05T21:29:32.445Z,6.73
2018-07-05T21:32:11.963Z,6.67
2018-07-05T21:34:51.896Z,6.40
2018-07-05T21:37:31.532Z,5.97
2018-07-05T21:40:11.192Z,6.90
2018-07-05T21:42:50.647Z,7.07
2018-07-05T21:45:30.072Z,6.83
2018-07-05T21:48:03.587Z,10.43
2018-07-05T21:50:43.125Z,7.27
2018-07-05T21:53:22.820Z,9.33
2018-07-05T21:56:02.529Z,8.00
2018-07-05T21:58:42.137Z,7.87
2018-07-05T22:01:21.800Z,7.43
2018-07-05T22:04:01.337Z,8.00
2018-07-05T22:06:40.947Z,7.70
2018-07-05T22:09:20.549Z,8.63
2018-07-05T22:12:00.018Z,7.93
2018-07-05T22:14:40.604Z,7.50
2018-07-05T22:17:25.689Z,8.80
2018-07-05T22:20:10.634Z,8.93
2018-07-05T22:22:49.711Z,8.07
2018-07-05T22:25:34.818Z,8.37
2018-07-05T22:28:19.903Z,7.47
2018-07-05T22:30:58.940Z,7.70
2018-07-05T22:33:38.574Z,6.77
2018-07-05T22:36:18.329Z,9.50
2018-07-05T22:38:57.994Z,7.50
2018-07-05T22:41:37.650Z,9.73
2018-07-05T22:44:17.253Z,8.20
2018-07-05T22:46:56.635Z,8.50
2018-07-05T22:49:36.330Z,7.63
2018-07-05T22:52:16.004Z,8.47
2018-07-05T22:54:55.646Z,7.30
2018-07-05T22:57:35.250Z,8.27
2018-07-05T23:00:14.878Z,9.83
2018-07-05T23:02:54.470Z,6.90
2018-07-05T23:05:35.195Z,6.67
2018-07-05T23:08:14.789Z,6.80
2018-07-05T23:10:54.232Z,6.93
2018-07-05T23:13:33.821Z,7.43
2018-07-05T23:16:13.452Z,5.47
2018-07-05T23:18:53.091Z,7.07
2018-07-05T23:21:32.621Z,5.93
2018-07-05T23:24:12.321Z,7.07
2018-07-05T23:26:52.008Z,7.23
2018-07-05T23:29:31.527Z,8.67
2018-07-05T23:32:11.150Z,5.13
2018-07-05T23:34:50.776Z,5.80
2018-07-05T23:37:30.442Z,7.27
2018-07-05T23:40:10.167Z,6.87
2018-07-05T23:42:49.847Z,6.33
2018-07-05T23:45:29.484Z,6.87
2018-07-05T23:48:09.134Z,6.30
2018-07-05T23:50:48.697Z,7.07
2018-07-05T23:53:28.417Z,7.67
2018-07-05T23:56:08.027Z,6.70
2018-07-05T23:58:47.629Z,5.97
